Time;durP1;ratioP1;P1;durP2;ratioP2;P2;SDS_P1;SDS_P2;PMS_P1;PMS_P2;Temp;Humidity;BMP_temperature;BMP_pressure;BME280_temperature;BME280_humidity;BME280_pressure;Samples;Min_cycle;Max_cycle;Signal;HPM_P1;HPM_P2
2023/07/21 00:00:45;;;;;;;0.30;0.30;;;;;;;;;;2049993;28;20023;-59
2023/07/21 00:02:05;;;;;;;0.32;0.30;;;;;;;;;;2054780;28;20133;-60
2023/07/21 00:03:24;;;;;;;0.38;0.28;;;;;;;;;;2058098;28;20348;-59
2023/07/21 00:04:43;;;;;;;1.75;0.50;;;;;;;;;;2057768;28;20145;-61
2023/07/21 00:06:04;;;;;;;0.30;0.30;;;;;;;;;;2057738;28;20038;-59
2023/07/21 00:07:24;;;;;;;0.38;0.15;;;;;;;;;;2057059;28;20063;-59
2023/07/21 00:08:43;;;;;;;0.82;0.30;;;;;;;;;;2057496;28;20019;-60
2023/07/21 00:10:07;;;;;;;0.30;0.30;;;;;;;;;;2048797;28;20027;-61
2023/07/21 00:11:26;;;;;;;1.33;0.40;;;;;;;;;;2055603;28;20105;-60
2023/07/21 00:12:48;;;;;;;0.40;0.40;;;;;;;;;;2058042;28;20031;-60
2023/07/21 00:14:07;;;;;;;0.98;0.40;;;;;;;;;;2058044;28;20058;-59
2023/07/21 00:15:27;;;;;;;0.52;0.30;;;;;;;;;;2057643;28;20023;-60
2023/07/21 00:16:47;;;;;;;0.30;0.30;;;;;;;;;;2057530;28;20685;-59
2023/07/21 00:18:06;;;;;;;0.43;0.32;;;;;;;;;;2058308;28;20487;-60
2023/07/21 00:19:25;;;;;;;0.40;0.40;;;;;;;;;;2059162;28;20023;-60
2023/07/21 00:20:44;;;;;;;0.68;0.30;;;;;;;;;;2056460;28;20034;-62
2023/07/21 00:22:03;;;;;;;0.45;0.20;;;;;;;;;;2056379;28;20396;-60
2023/07/21 00:23:26;;;;;;;1.55;0.20;;;;;;;;;;2057731;28;20047;-60
2023/07/21 00:24:45;;;;;;;1.33;0.30;;;;;;;;;;2062435;28;20062;-60
2023/07/21 00:26:04;;;;;;;1.65;0.40;;;;;;;;;;2058333;28;20027;-60
2023/07/21 00:27:23;;;;;;;0.52;0.40;;;;;;;;;;2057491;28;20129;-61
2023/07/21 00:28:43;;;;;;;0.52;0.30;;;;;;;;;;2058249;28;20026;-61
2023/07/21 00:30:02;;;;;;;0.52;0.50;;;;;;;;;;2057582;28;20039;-61
2023/07/21 00:31:20;;;;;;;0.30;0.30;;;;;;;;;;2063089;28;20031;-59
2023/07/21 00:32:40;;;;;;;0.30;0.30;;;;;;;;;;2057411;28;20035;-60
2023/07/21 00:34:00;;;;;;;0.20;0.20;;;;;;;;;;2055851;28;20035;-59
2023/07/21 00:35:19;;;;;;;0.30;0.30;;;;;;;;;;2057906;28;20031;-59
2023/07/21 00:36:38;;;;;;;0.52;0.30;;;;;;;;;;2058805;28;20043;-59
2023/07/21 00:38:00;;;;;;;0.50;0.30;;;;;;;;;;2056608;28;20035;-60
2023/07/21 00:39:19;;;;;;;0.20;0.20;;;;;;;;;;2058417;28;20105;-60
2023/07/21 00:40:38;;;;;;;1.55;0.40;;;;;;;;;;2059432;28;20076;-60
2023/07/21 00:41:58;;;;;;;0.80;0.40;;;;;;;;;;2058476;28;20527;-60
2023/07/21 00:43:18;;;;;;;0.43;0.20;;;;;;;;;;2058470;28;20117;-60
2023/07/21 00:44:37;;;;;;;0.30;0.30;;;;;;;;;;2058425;28;20403;-60
2023/07/21 00:45:56;;;;;;;0.43;0.30;;;;;;;;;;2048692;28;20482;-60
2023/07/21 00:47:15;;;;;;;0.65;0.30;;;;;;;;;;2055127;28;20628;-59
2023/07/21 00:48:33;;;;;;;0.63;0.28;;;;;;;;;;2058656;28;20125;-60
2023/07/21 00:49:52;;;;;;;0.20;0.20;;;;;;;;;;2057581;28;20023;-60
2023/07/21 00:51:11;;;;;;;0.63;0.35;;;;;;;;;;2056320;28;20018;-60
2023/07/21 00:52:30;;;;;;;0.30;0.30;;;;;;;;;;2057175;28;20023;-61
2023/07/21 00:53:50;;;;;;;2.17;0.30;;;;;;;;;;2059227;28;20035;-60
2023/07/21 00:55:09;;;;;;;0.43;0.25;;;;;;;;;;2056794;28;20038;-59
2023/07/21 00:56:28;;;;;;;0.60;0.45;;;;;;;;;;2057712;28;20027;-60
2023/07/21 00:57:47;;;;;;;1.48;0.30;;;;;;;;;;2057755;28;20027;-60
2023/07/21 00:59:06;;;;;;;0.75;0.40;;;;;;;;;;2058061;28;20109;-58
2023/07/21 01:00:27;;;;;;;1.13;0.50;;;;;;;;;;2057444;28;20462;-59
2023/07/21 01:01:46;;;;;;;1.25;0.22;;;;;;;;;;2056511;28;20034;-58
2023/07/21 01:03:06;;;;;;;0.30;0.30;;;;;;;;;;2056716;28;20587;-60
2023/07/21 01:04:25;;;;;;;0.25;0.25;;;;;;;;;;2049109;28;20118;-59
2023/07/21 01:05:49;;;;;;;1.42;0.55;;;;;;;;;;2051459;28;20133;-60
2023/07/21 01:07:11;;;;;;;0.40;0.32;;;;;;;;;;2058819;28;20430;-59
2023/07/21 01:08:30;;;;;;;0.25;0.25;;;;;;;;;;2057771;28;20034;-60
2023/07/21 01:09:49;;;;;;;0.95;0.50;;;;;;;;;;2055990;28;20102;-59
2023/07/21 01:11:10;;;;;;;0.55;0.20;;;;;;;;;;2059038;28;20025;-63
2023/07/21 01:12:30;;;;;;;1.75;0.20;;;;;;;;;;2055611;28;20019;-60
2023/07/21 01:13:50;;;;;;;1.00;0.30;;;;;;;;;;2058007;28;21101;-60
2023/07/21 01:15:09;;;;;;;0.75;0.20;;;;;;;;;;2056656;28;20038;-60
2023/07/21 01:16:29;;;;;;;0.30;0.30;;;;;;;;;;2057429;28;20026;-63
2023/07/21 01:17:49;;;;;;;1.45;0.30;;;;;;;;;;2056719;28;20023;-59
2023/07/21 01:19:11;;;;;;;1.40;0.40;;;;;;;;;;2055193;28;20038;-60
2023/07/21 01:20:30;;;;;;;0.20;0.20;;;;;;;;;;2065367;28;20023;-59
2023/07/21 01:21:53;;;;;;;2.35;0.40;;;;;;;;;;2056467;28;20027;-61
2023/07/21 01:23:30;;;;;;;0.80;0.40;;;;;;;;;;2055446;28;20027;-59
2023/07/21 01:24:49;;;;;;;1.30;0.30;;;;;;;;;;2048369;28;20539;-60
2023/07/21 01:26:10;;;;;;;0.70;0.20;;;;;;;;;;2054295;28;20408;-59
2023/07/21 01:27:30;;;;;;;0.40;0.30;;;;;;;;;;2056171;28;20026;-59
2023/07/21 01:28:49;;;;;;;0.77;0.40;;;;;;;;;;2062445;28;20027;-59
2023/07/21 01:30:10;;;;;;;0.22;0.22;;;;;;;;;;2055862;28;20039;-60
2023/07/21 01:31:29;;;;;;;0.47;0.20;;;;;;;;;;2054110;28;20036;-59
2023/07/21 01:32:49;;;;;;;0.70;0.20;;;;;;;;;;2055780;28;20039;-60
2023/07/21 01:34:09;;;;;;;2.28;0.43;;;;;;;;;;2056986;28;20402;-61
2023/07/21 01:35:30;;;;;;;0.20;0.20;;;;;;;;;;2056879;28;20495;-59
2023/07/21 01:36:49;;;;;;;0.98;0.30;;;;;;;;;;2054799;28;20034;-60
2023/07/21 01:38:08;;;;;;;0.52;0.20;;;;;;;;;;2065293;28;20073;-60
2023/07/21 01:39:28;;;;;;;0.77;0.22;;;;;;;;;;2056267;28;20030;-60
2023/07/21 01:40:48;;;;;;;1.33;0.28;;;;;;;;;;2054916;28;20043;-59
2023/07/21 01:42:07;;;;;;;0.40;0.20;;;;;;;;;;2057023;28;20042;-60
2023/07/21 01:43:27;;;;;;;0.98;0.30;;;;;;;;;;2057239;28;20019;-59
2023/07/21 01:44:46;;;;;;;2.25;0.47;;;;;;;;;;2057064;28;20479;-60
2023/07/21 01:46:08;;;;;;;1.52;0.30;;;;;;;;;;2060794;28;20437;-60
2023/07/21 01:47:27;;;;;;;0.10;0.10;;;;;;;;;;2045789;28;20416;-58
2023/07/21 01:48:46;;;;;;;1.50;0.30;;;;;;;;;;2052213;28;20480;-59
2023/07/21 01:50:08;;;;;;;0.35;0.35;;;;;;;;;;2049189;28;20074;-59
2023/07/21 01:51:28;;;;;;;0.60;0.30;;;;;;;;;;2055753;28;20418;-60
2023/07/21 01:52:47;;;;;;;0.30;0.30;;;;;;;;;;2057272;28;20060;-59
2023/07/21 01:54:10;;;;;;;0.25;0.20;;;;;;;;;;2058587;28;20032;-60
2023/07/21 01:55:36;;;;;;;0.20;0.20;;;;;;;;;;2055352;28;20050;-60
2023/07/21 01:57:18;;;;;;;0.52;0.20;;;;;;;;;;2057200;28;20491;-60
2023/07/21 01:58:37;;;;;;;0.55;0.25;;;;;;;;;;2056700;28;20039;-59
2023/07/21 01:59:58;;;;;;;0.30;0.22;;;;;;;;;;2057740;28;20487;-61
2023/07/21 02:01:17;;;;;;;4.15;0.35;;;;;;;;;;2061427;28;20031;-60
2023/07/21 02:02:38;;;;;;;0.60;0.20;;;;;;;;;;2058109;28;20027;-61
2023/07/21 02:03:57;;;;;;;0.55;0.20;;;;;;;;;;2058344;28;20422;-59
2023/07/21 02:05:22;;;;;;;0.47;0.20;;;;;;;;;;2058470;28;20023;-63
2023/07/21 02:06:41;;;;;;;0.50;0.20;;;;;;;;;;2059553;28;20026;-61
2023/07/21 02:08:00;;;;;;;0.30;0.17;;;;;;;;;;2058372;28;20027;-61
2023/07/21 02:09:20;;;;;;;1.13;0.40;;;;;;;;;;2049483;28;20114;-60
2023/07/21 02:10:40;;;;;;;0.25;0.25;;;;;;;;;;2055041;28;20109;-60
2023/07/21 02:12:00;;;;;;;0.65;0.22;;;;;;;;;;2058049;28;20504;-59
2023/07/21 02:13:19;;;;;;;0.60;0.30;;;;;;;;;;2058828;28;20434;-60
2023/07/21 02:14:40;;;;;;;0.63;0.30;;;;;;;;;;2060243;28;20109;-62
2023/07/21 02:15:59;;;;;;;0.40;0.20;;;;;;;;;;2057763;28;20587;-59
2023/07/21 02:17:18;;;;;;;0.32;0.20;;;;;;;;;;2058500;28;20031;-61
2023/07/21 02:18:39;;;;;;;0.85;0.20;;;;;;;;;;2058566;28;20035;-60
2023/07/21 02:19:58;;;;;;;0.20;0.20;;;;;;;;;;2058385;28;20038;-60
2023/07/21 02:21:16;;;;;;;1.23;0.30;;;;;;;;;;2058220;28;20491;-60
2023/07/21 02:22:37;;;;;;;1.17;0.25;;;;;;;;;;2057794;28;20023;-60
2023/07/21 02:23:55;;;;;;;1.05;0.20;;;;;;;;;;2058230;28;20067;-61
2023/07/21 02:25:15;;;;;;;0.20;0.20;;;;;;;;;;2059132;28;20038;-60
2023/07/21 02:26:34;;;;;;;0.35;0.20;;;;;;;;;;2049850;28;20035;-61
2023/07/21 02:27:53;;;;;;;0.90;0.20;;;;;;;;;;2053981;28;20035;-61
2023/07/21 02:29:12;;;;;;;2.55;0.43;;;;;;;;;;2057509;28;20427;-62
2023/07/21 02:30:31;;;;;;;0.43;0.20;;;;;;;;;;2057763;28;20488;-61
2023/07/21 02:31:50;;;;;;;0.68;0.30;;;;;;;;;;2059641;28;20039;-61
2023/07/21 02:33:10;;;;;;;2.47;0.40;;;;;;;;;;2058867;28;20030;-62
2023/07/21 02:34:29;;;;;;;0.45;0.13;;;;;;;;;;2057482;28;20063;-61
2023/07/21 02:35:48;;;;;;;0.52;0.30;;;;;;;;;;2058240;28;20034;-61
2023/07/21 02:37:07;;;;;;;1.60;0.63;;;;;;;;;;2059622;28;20026;-60
2023/07/21 02:38:26;;;;;;;0.20;0.10;;;;;;;;;;2058576;28;20039;-60
2023/07/21 02:39:46;;;;;;;1.25;0.30;;;;;;;;;;2057716;28;20034;-60
2023/07/21 02:41:05;;;;;;;0.50;0.40;;;;;;;;;;2058841;28;20042;-59
2023/07/21 02:42:24;;;;;;;0.63;0.30;;;;;;;;;;2051299;28;20031;-60
2023/07/21 02:43:43;;;;;;;0.38;0.28;;;;;;;;;;2054704;28;20042;-61
2023/07/21 02:45:03;;;;;;;2.15;0.20;;;;;;;;;;2058787;28;20034;-62
2023/07/21 02:46:23;;;;;;;0.80;0.20;;;;;;;;;;2057726;28;20026;-61
2023/07/21 02:47:41;;;;;;;0.50;0.38;;;;;;;;;;2057567;28;20027;-62
2023/07/21 02:49:01;;;;;;;1.88;0.30;;;;;;;;;;2058137;28;20031;-60
2023/07/21 02:50:21;;;;;;;0.22;0.20;;;;;;;;;;2064592;28;20027;-59
2023/07/21 02:51:40;;;;;;;0.28;0.20;;;;;;;;;;2058100;28;20027;-60
2023/07/21 02:52:59;;;;;;;0.93;0.40;;;;;;;;;;2057795;28;20042;-61
2023/07/21 02:54:18;;;;;;;4.05;0.30;;;;;;;;;;2058712;28;20035;-60
2023/07/21 02:55:37;;;;;;;0.93;0.60;;;;;;;;;;2058405;28;20038;-60
2023/07/21 02:56:56;;;;;;;0.77;0.30;;;;;;;;;;2063893;28;20026;-59
2023/07/21 02:58:16;;;;;;;0.20;0.13;;;;;;;;;;2057440;28;20027;-60
2023/07/21 02:59:35;;;;;;;2.47;0.32;;;;;;;;;;2057522;28;20106;-60
2023/07/21 03:00:55;;;;;;;0.50;0.50;;;;;;;;;;2049744;28;20032;-60
2023/07/21 03:02:14;;;;;;;0.73;0.30;;;;;;;;;;2056277;28;20054;-60
2023/07/21 03:03:33;;;;;;;0.52;0.40;;;;;;;;;;2057035;28;20487;-60
2023/07/21 03:04:52;;;;;;;0.90;0.30;;;;;;;;;;2057919;28;20475;-61
2023/07/21 03:06:11;;;;;;;2.22;0.30;;;;;;;;;;2058775;28;20100;-60
2023/07/21 03:07:30;;;;;;;1.65;0.20;;;;;;;;;;2049897;28;20034;-60
2023/07/21 03:08:49;;;;;;;0.22;0.22;;;;;;;;;;2054011;28;20026;-60
2023/07/21 03:10:12;;;;;;;1.88;0.57;;;;;;;;;;2056992;28;20039;-61
2023/07/21 03:11:31;;;;;;;2.70;0.40;;;;;;;;;;2055605;28;20031;-61
2023/07/21 03:12:50;;;;;;;0.88;0.40;;;;;;;;;;2059890;28;20026;-60
2023/07/21 03:14:10;;;;;;;2.33;0.40;;;;;;;;;;2058601;28;20034;-61
2023/07/21 03:15:29;;;;;;;0.75;0.30;;;;;;;;;;2058283;28;20077;-60
2023/07/21 03:16:48;;;;;;;1.40;0.30;;;;;;;;;;2058251;28;20027;-60
2023/07/21 03:18:08;;;;;;;0.30;0.30;;;;;;;;;;2050764;28;20110;-60
2023/07/21 03:19:30;;;;;;;0.90;0.30;;;;;;;;;;2046651;28;20423;-61
2023/07/21 03:20:49;;;;;;;1.45;0.40;;;;;;;;;;2054613;28;20022;-60
2023/07/21 03:22:08;;;;;;;1.30;0.30;;;;;;;;;;2047962;28;20539;-61
2023/07/21 03:23:27;;;;;;;0.50;0.30;;;;;;;;;;2065559;28;20041;-59
2023/07/21 03:24:46;;;;;;;0.55;0.30;;;;;;;;;;2055639;28;20031;-61
2023/07/21 03:26:05;;;;;;;0.70;0.32;;;;;;;;;;2057088;28;20433;-62
2023/07/21 03:27:24;;;;;;;2.05;0.30;;;;;;;;;;2057176;28;20046;-60
2023/07/21 03:28:43;;;;;;;0.47;0.40;;;;;;;;;;2059094;28;20030;-60
2023/07/21 03:30:02;;;;;;;2.00;0.60;;;;;;;;;;2058535;28;20649;-60
2023/07/21 03:31:21;;;;;;;0.55;0.40;;;;;;;;;;2058582;28;20113;-60
2023/07/21 03:32:43;;;;;;;1.42;0.30;;;;;;;;;;2048538;28;20027;-61
2023/07/21 03:34:02;;;;;;;1.35;0.30;;;;;;;;;;2054676;28;20359;-60
2023/07/21 03:35:21;;;;;;;2.63;0.40;;;;;;;;;;2057287;28;20039;-62
2023/07/21 03:36:40;;;;;;;0.40;0.30;;;;;;;;;;2061539;28;20456;-61
2023/07/21 03:37:59;;;;;;;0.70;0.30;;;;;;;;;;2056021;28;20042;-62
2023/07/21 03:39:18;;;;;;;2.28;0.38;;;;;;;;;;2057374;28;20038;-60
2023/07/21 03:40:37;;;;;;;1.65;0.85;;;;;;;;;;2058834;28;20039;-60
2023/07/21 03:41:56;;;;;;;2.08;0.43;;;;;;;;;;2058928;28;20026;-60
2023/07/21 03:43:16;;;;;;;0.68;0.30;;;;;;;;;;2059620;28;20030;-59
2023/07/21 03:44:35;;;;;;;2.05;0.45;;;;;;;;;;2056161;28;20026;-59
2023/07/21 03:45:55;;;;;;;0.35;0.28;;;;;;;;;;2061272;28;20498;-60
2023/07/21 03:47:17;;;;;;;3.35;0.73;;;;;;;;;;2058921;28;20027;-61
2023/07/21 03:48:36;;;;;;;1.27;0.40;;;;;;;;;;2057835;28;20046;-60
2023/07/21 03:49:55;;;;;;;0.38;0.30;;;;;;;;;;2058238;28;20471;-61
2023/07/21 03:51:14;;;;;;;1.23;0.40;;;;;;;;;;2057869;28;20113;-61
2023/07/21 03:52:34;;;;;;;1.13;0.50;;;;;;;;;;2058793;28;20018;-61
2023/07/21 03:53:53;;;;;;;3.15;0.63;;;;;;;;;;2057938;28;20031;-61
2023/07/21 03:55:12;;;;;;;1.80;0.50;;;;;;;;;;2058185;28;20019;-61
2023/07/21 03:56:31;;;;;;;1.25;0.40;;;;;;;;;;2057556;28;20034;-60
2023/07/21 03:57:50;;;;;;;4.35;1.00;;;;;;;;;;2058780;28;20023;-60
2023/07/21 03:59:09;;;;;;;0.98;0.60;;;;;;;;;;2063141;28;20043;-59
2023/07/21 04:00:29;;;;;;;1.30;0.43;;;;;;;;;;2060760;28;20034;-61
2023/07/21 04:01:48;;;;;;;3.00;0.68;;;;;;;;;;2058243;28;20048;-60
2023/07/21 04:03:07;;;;;;;1.65;0.50;;;;;;;;;;2058183;28;20042;-61
2023/07/21 04:04:26;;;;;;;2.28;0.98;;;;;;;;;;2051100;28;20027;-61
2023/07/21 04:05:47;;;;;;;1.80;1.02;;;;;;;;;;2054558;28;20118;-60
2023/07/21 04:07:07;;;;;;;2.42;0.50;;;;;;;;;;2057152;28;20504;-61
2023/07/21 04:08:26;;;;;;;2.53;0.50;;;;;;;;;;2057074;28;20484;-60
2023/07/21 04:09:46;;;;;;;3.15;0.57;;;;;;;;;;2059540;28;20475;-59
2023/07/21 04:11:06;;;;;;;1.48;0.60;;;;;;;;;;2049628;28;20036;-61
2023/07/21 04:12:25;;;;;;;3.53;1.05;;;;;;;;;;2055343;28;20031;-62
2023/07/21 04:13:44;;;;;;;1.65;0.60;;;;;;;;;;2058698;28;20056;-60
2023/07/21 04:15:03;;;;;;;2.65;0.88;;;;;;;;;;2061123;28;20340;-60
2023/07/21 04:16:22;;;;;;;0.95;0.60;;;;;;;;;;2057922;28;20034;-60
2023/07/21 04:17:41;;;;;;;0.57;0.45;;;;;;;;;;2057298;28;20109;-59
2023/07/21 04:19:00;;;;;;;1.65;0.77;;;;;;;;;;2049153;28;20508;-60
2023/07/21 04:20:19;;;;;;;1.90;0.63;;;;;;;;;;2054677;28;20055;-60
2023/07/21 04:21:38;;;;;;;4.32;1.35;;;;;;;;;;2057692;28;20034;-60
2023/07/21 04:22:57;;;;;;;2.00;0.70;;;;;;;;;;2056371;28;20426;-64
2023/07/21 04:24:16;;;;;;;3.72;0.68;;;;;;;;;;2059582;28;20026;-61
2023/07/21 04:25:35;;;;;;;3.22;0.70;;;;;;;;;;2061386;28;20038;-60
2023/07/21 04:26:54;;;;;;;3.63;1.00;;;;;;;;;;2056295;28;20039;-60
2023/07/21 04:28:14;;;;;;;3.22;0.68;;;;;;;;;;2058729;28;20035;-60
2023/07/21 04:29:33;;;;;;;3.53;0.90;;;;;;;;;;2056691;28;20415;-60
2023/07/21 04:30:53;;;;;;;3.72;0.80;;;;;;;;;;2057322;28;20563;-62
2023/07/21 04:32:14;;;;;;;2.80;1.02;;;;;;;;;;2057064;28;20057;-60
2023/07/21 04:33:34;;;;;;;5.07;1.15;;;;;;;;;;2059001;28;20026;-60
2023/07/21 04:34:54;;;;;;;2.80;0.70;;;;;;;;;;2057573;28;20022;-60
2023/07/21 04:36:14;;;;;;;3.38;1.00;;;;;;;;;;2061333;28;20034;-60
2023/07/21 04:37:33;;;;;;;1.67;0.80;;;;;;;;;;2061314;28;20467;-60
2023/07/21 04:38:52;;;;;;;3.08;1.00;;;;;;;;;;2057769;28;20034;-63
2023/07/21 04:40:11;;;;;;;3.25;1.13;;;;;;;;;;2055318;28;20035;-61
2023/07/21 04:41:30;;;;;;;2.08;1.02;;;;;;;;;;2057818;28;20174;-65
2023/07/21 04:42:50;;;;;;;4.05;1.25;;;;;;;;;;2056850;28;20039;-61
2023/07/21 04:44:09;;;;;;;2.92;1.23;;;;;;;;;;2056962;28;20043;-61
2023/07/21 04:45:28;;;;;;;4.30;1.00;;;;;;;;;;2055127;28;20444;-61
2023/07/21 04:46:47;;;;;;;2.60;1.33;;;;;;;;;;2062634;28;20046;-61
2023/07/21 04:48:06;;;;;;;4.75;1.30;;;;;;;;;;2065867;28;20043;-61
2023/07/21 04:49:25;;;;;;;2.70;1.10;;;;;;;;;;2055906;28;20503;-60
2023/07/21 04:50:50;;;;;;;2.50;1.05;;;;;;;;;;2056996;28;20035;-61
2023/07/21 04:52:09;;;;;;;1.77;0.98;;;;;;;;;;2056223;28;20459;-61
2023/07/21 04:53:28;;;;;;;3.22;1.13;;;;;;;;;;2056369;28;20042;-62
2023/07/21 04:54:48;;;;;;;4.57;1.65;;;;;;;;;;2056412;28;20031;-61
2023/07/21 04:56:07;;;;;;;5.70;1.27;;;;;;;;;;2055009;28;20027;-61
2023/07/21 04:57:26;;;;;;;3.92;1.10;;;;;;;;;;2065716;28;20579;-61
2023/07/21 04:58:45;;;;;;;5.47;1.73;;;;;;;;;;2055164;28;20026;-61
2023/07/21 05:00:10;;;;;;;2.95;1.00;;;;;;;;;;2056259;28;20126;-61
2023/07/21 05:01:31;;;;;;;3.78;1.35;;;;;;;;;;2055799;28;20080;-60
2023/07/21 05:02:50;;;;;;;4.10;1.60;;;;;;;;;;2057164;28;20509;-61
2023/07/21 05:04:09;;;;;;;5.85;1.25;;;;;;;;;;2055454;28;20042;-61
2023/07/21 05:05:28;;;;;;;3.95;1.60;;;;;;;;;;2050146;28;20109;-60
2023/07/21 05:06:50;;;;;;;5.07;1.50;;;;;;;;;;2065139;28;20479;-62
2023/07/21 05:08:09;;;;;;;7.22;2.28;;;;;;;;;;2048140;28;20035;-61
2023/07/21 05:09:28;;;;;;;6.97;1.80;;;;;;;;;;2054030;28;20503;-61
2023/07/21 05:10:47;;;;;;;8.18;1.95;;;;;;;;;;2056368;28;20031;-61
2023/07/21 05:12:06;;;;;;;10.35;2.13;;;;;;;;;;2048936;28;20031;-62
2023/07/21 05:13:25;;;;;;;4.78;1.63;;;;;;;;;;2048849;28;20031;-62
2023/07/21 05:14:44;;;;;;;4.95;1.75;;;;;;;;;;2060976;28;20029;-61
2023/07/21 05:16:03;;;;;;;7.35;1.90;;;;;;;;;;2056347;28;20030;-61
2023/07/21 05:17:22;;;;;;;5.47;1.65;;;;;;;;;;2056520;28;20027;-61
2023/07/21 05:18:41;;;;;;;4.15;1.20;;;;;;;;;;2056519;28;20042;-60
2023/07/21 05:20:03;;;;;;;7.97;1.65;;;;;;;;;;2055598;28;20034;-64
2023/07/21 05:21:22;;;;;;;3.50;1.88;;;;;;;;;;2047319;28;20028;-61
2023/07/21 05:22:42;;;;;;;8.13;1.73;;;;;;;;;;2057032;28;20035;-61
2023/07/21 05:24:01;;;;;;;7.03;1.60;;;;;;;;;;2060354;28;20506;-61
2023/07/21 05:25:20;;;;;;;3.28;1.92;;;;;;;;;;2057473;28;20511;-61
2023/07/21 05:26:39;;;;;;;3.50;1.73;;;;;;;;;;2056855;28;20082;-61
2023/07/21 05:27:58;;;;;;;6.68;1.80;;;;;;;;;;2056454;28;20039;-61
2023/07/21 05:29:17;;;;;;;4.43;1.65;;;;;;;;;;2055198;28;20109;-61
2023/07/21 05:30:40;;;;;;;6.30;1.70;;;;;;;;;;2055006;28;20050;-61
2023/07/21 05:32:01;;;;;;;6.40;2.28;;;;;;;;;;2056288;28;20058;-62
2023/07/21 05:33:20;;;;;;;6.78;1.98;;;;;;;;;;2059147;28;20043;-61
2023/07/21 05:34:38;;;;;;;8.20;1.92;;;;;;;;;;2062870;28;20070;-61
2023/07/21 05:36:09;;;;;;;4.85;1.98;;;;;;;;;;2055695;28;20031;-62
2023/07/21 05:37:28;;;;;;;8.98;2.88;;;;;;;;;;2056520;28;20026;-61
2023/07/21 05:38:47;;;;;;;9.75;2.60;;;;;;;;;;2057843;28;20074;-61
2023/07/21 05:40:08;;;;;;;5.75;1.92;;;;;;;;;;2049877;28;20039;-61
2023/07/21 05:41:27;;;;;;;7.90;2.20;;;;;;;;;;2053749;28;20047;-60
2023/07/21 05:42:46;;;;;;;5.75;2.00;;;;;;;;;;2062969;28;20031;-60
2023/07/21 05:44:05;;;;;;;5.47;1.75;;;;;;;;;;2062262;28;20047;-60
2023/07/21 05:45:24;;;;;;;8.48;2.00;;;;;;;;;;2057564;28;20042;-61
2023/07/21 05:46:44;;;;;;;6.15;2.30;;;;;;;;;;2057271;28;20476;-60
2023/07/21 05:48:03;;;;;;;6.75;1.88;;;;;;;;;;2057970;28;20039;-61
2023/07/21 05:49:23;;;;;;;6.72;2.00;;;;;;;;;;2057286;28;20031;-61
2023/07/21 05:50:41;;;;;;;6.22;2.13;;;;;;;;;;2056765;28;20031;-61
2023/07/21 05:52:00;;;;;;;7.40;2.00;;;;;;;;;;2062090;28;20019;-61
2023/07/21 05:53:19;;;;;;;5.45;1.83;;;;;;;;;;2059818;28;20035;-61
2023/07/21 05:54:39;;;;;;;7.07;2.58;;;;;;;;;;2056819;28;20244;-61
2023/07/21 05:55:58;;;;;;;7.15;2.10;;;;;;;;;;2058410;28;20514;-61
2023/07/21 05:57:17;;;;;;;8.32;2.25;;;;;;;;;;2057687;28;20035;-61
2023/07/21 05:58:36;;;;;;;5.53;2.33;;;;;;;;;;2050287;28;20043;-61
2023/07/21 05:59:55;;;;;;;5.40;2.13;;;;;;;;;;2054454;28;20054;-62
2023/07/21 06:01:14;;;;;;;4.95;2.30;;;;;;;;;;2060767;28;20042;-60
2023/07/21 06:02:33;;;;;;;11.55;2.38;;;;;;;;;;2059877;28;20030;-61
2023/07/21 06:03:52;;;;;;;8.00;2.13;;;;;;;;;;2058880;28;20031;-61
2023/07/21 06:05:11;;;;;;;6.95;2.63;;;;;;;;;;2059079;28;20030;-60
2023/07/21 06:06:31;;;;;;;6.32;2.78;;;;;;;;;;2049835;28;20515;-61
2023/07/21 06:07:51;;;;;;;4.80;2.00;;;;;;;;;;2047482;28;20036;-64
2023/07/21 06:09:10;;;;;;;7.22;2.22;;;;;;;;;;2055023;28;20030;-61
2023/07/21 06:10:30;;;;;;;6.88;1.83;;;;;;;;;;2059509;28;20020;-61
2023/07/21 06:11:49;;;;;;;8.15;2.30;;;;;;;;;;2059430;28;20031;-60
2023/07/21 06:13:09;;;;;;;6.38;2.15;;;;;;;;;;2062684;28;20462;-62
2023/07/21 06:14:28;;;;;;;6.72;2.72;;;;;;;;;;2046251;28;20432;-61
2023/07/21 06:15:47;;;;;;;4.20;2.15;;;;;;;;;;2054298;28;20019;-61
2023/07/21 06:17:06;;;;;;;3.30;1.73;;;;;;;;;;2058510;28;20031;-61
2023/07/21 06:18:25;;;;;;;3.35;2.00;;;;;;;;;;2059230;28;20039;-61
2023/07/21 06:19:46;;;;;;;5.22;2.00;;;;;;;;;;2059009;28;20035;-61
2023/07/21 06:21:05;;;;;;;8.80;2.67;;;;;;;;;;2058524;28;20427;-60
2023/07/21 06:22:24;;;;;;;10.68;2.58;;;;;;;;;;2057666;28;20030;-61
2023/07/21 06:23:43;;;;;;;7.68;3.03;;;;;;;;;;2062331;28;20030;-62
2023/07/21 06:25:03;;;;;;;10.00;2.60;;;;;;;;;;2058715;28;20558;-62
2023/07/21 06:26:23;;;;;;;6.30;1.95;;;;;;;;;;2058354;28;20039;-60
2023/07/21 06:27:44;;;;;;;3.53;1.88;;;;;;;;;;2060270;28;20438;-60
2023/07/21 06:29:03;;;;;;;7.63;2.10;;;;;;;;;;2057636;28;20705;-61
2023/07/21 06:30:22;;;;;;;5.68;2.17;;;;;;;;;;2058773;28;20141;-61
2023/07/21 06:31:41;;;;;;;4.70;2.20;;;;;;;;;;2057963;28;20018;-59
2023/07/21 06:32:59;;;;;;;5.93;1.77;;;;;;;;;;2059090;28;20566;-61
2023/07/21 06:34:19;;;;;;;7.95;2.08;;;;;;;;;;2057831;28;20034;-61
2023/07/21 06:35:38;;;;;;;10.73;2.78;;;;;;;;;;2056918;28;20023;-60
2023/07/21 06:36:57;;;;;;;5.28;2.25;;;;;;;;;;2058472;28;20113;-61
2023/07/21 06:38:16;;;;;;;2.28;1.50;;;;;;;;;;2050319;28;20117;-62
2023/07/21 06:39:35;;;;;;;7.50;2.00;;;;;;;;;;2055012;28;20477;-61
2023/07/21 06:40:54;;;;;;;5.03;2.38;;;;;;;;;;2057799;28;20387;-61
2023/07/21 06:42:13;;;;;;;5.82;1.92;;;;;;;;;;2060487;28;20058;-61
2023/07/21 06:43:32;;;;;;;5.20;2.00;;;;;;;;;;2057758;28;20026;-61
2023/07/21 06:44:52;;;;;;;7.75;2.20;;;;;;;;;;2058665;28;20026;-63
2023/07/21 06:46:11;;;;;;;5.68;2.20;;;;;;;;;;2058500;28;20461;-61
2023/07/21 06:47:30;;;;;;;6.15;2.20;;;;;;;;;;2048549;28;20419;-61
2023/07/21 06:48:49;;;;;;;7.35;2.13;;;;;;;;;;2056120;28;20031;-61
2023/07/21 06:50:08;;;;;;;7.60;2.20;;;;;;;;;;2057585;28;20022;-61
2023/07/21 06:51:27;;;;;;;5.90;1.77;;;;;;;;;;2056921;28;20035;-61
2023/07/21 06:52:46;;;;;;;2.80;1.88;;;;;;;;;;2058299;28;20027;-63
2023/07/21 06:54:07;;;;;;;6.30;2.20;;;;;;;;;;2057131;28;20098;-61
2023/07/21 06:55:25;;;;;;;6.70;2.65;;;;;;;;;;2059322;28;20126;-61
2023/07/21 06:56:44;;;;;;;6.28;1.83;;;;;;;;;;2060584;28;20039;-60
2023/07/21 06:58:03;;;;;;;8.80;1.95;;;;;;;;;;2057941;28;20442;-60
2023/07/21 06:59:22;;;;;;;7.10;2.22;;;;;;;;;;2059740;28;20430;-62
2023/07/21 07:00:41;;;;;;;5.53;2.17;;;;;;;;;;2058993;28;20495;-60
2023/07/21 07:02:00;;;;;;;5.63;2.08;;;;;;;;;;2062706;28;20054;-61
2023/07/21 07:03:19;;;;;;;6.85;2.22;;;;;;;;;;2058730;28;20034;-61
2023/07/21 07:04:39;;;;;;;4.43;1.77;;;;;;;;;;2057162;28;20034;-61
2023/07/21 07:05:59;;;;;;;5.72;2.00;;;;;;;;;;2057578;28;20042;-61
2023/07/21 07:07:18;;;;;;;7.78;1.80;;;;;;;;;;2057366;28;20057;-61
2023/07/21 07:08:37;;;;;;;6.38;2.00;;;;;;;;;;2056479;28;20026;-61
2023/07/21 07:09:56;;;;;;;5.15;1.90;;;;;;;;;;2056901;28;20019;-61
2023/07/21 07:11:15;;;;;;;9.55;2.10;;;;;;;;;;2057460;28;20026;-61
2023/07/21 07:12:34;;;;;;;5.30;1.92;;;;;;;;;;2059206;28;20400;-61
2023/07/21 07:13:54;;;;;;;6.32;1.70;;;;;;;;;;2059789;28;20030;-60
2023/07/21 07:15:13;;;;;;;5.07;1.98;;;;;;;;;;2059149;28;20403;-61
2023/07/21 07:16:31;;;;;;;7.25;1.90;;;;;;;;;;2057506;28;20114;-61
2023/07/21 07:17:51;;;;;;;3.15;1.48;;;;;;;;;;2058820;28;20106;-61
2023/07/21 07:19:09;;;;;;;6.55;1.95;;;;;;;;;;2057607;28;20034;-61
2023/07/21 07:20:28;;;;;;;5.80;2.00;;;;;;;;;;2057794;28;20062;-60
2023/07/21 07:21:47;;;;;;;5.47;1.90;;;;;;;;;;2058980;28;20034;-60
2023/07/21 07:23:06;;;;;;;5.03;1.70;;;;;;;;;;2057787;28;20094;-61
2023/07/21 07:24:25;;;;;;;4.05;1.98;;;;;;;;;;2057910;28;20387;-60
2023/07/21 07:25:48;;;;;;;6.47;1.63;;;;;;;;;;2057475;28;20110;-61
2023/07/21 07:27:07;;;;;;;6.88;2.10;;;;;;;;;;2057680;28;20031;-61
2023/07/21 07:28:26;;;;;;;4.90;2.10;;;;;;;;;;2057605;28;20031;-61
2023/07/21 07:29:46;;;;;;;6.18;2.15;;;;;;;;;;2059042;28;20038;-62
2023/07/21 07:31:06;;;;;;;6.95;1.98;;;;;;;;;;2059848;28;20042;-60
2023/07/21 07:32:25;;;;;;;3.63;1.55;;;;;;;;;;2062153;28;20438;-60
2023/07/21 07:33:44;;;;;;;2.53;1.50;;;;;;;;;;2057213;28;20400;-60
2023/07/21 07:35:04;;;;;;;5.78;1.90;;;;;;;;;;2058117;28;20031;-61
2023/07/21 07:36:22;;;;;;;3.15;1.48;;;;;;;;;;2057665;28;20027;-60
2023/07/21 07:37:42;;;;;;;6.50;1.70;;;;;;;;;;2058426;28;20438;-60
2023/07/21 07:39:01;;;;;;;7.10;2.00;;;;;;;;;;2056499;28;20437;-60
2023/07/21 07:40:20;;;;;;;4.15;1.80;;;;;;;;;;2058202;28;20039;-60
2023/07/21 07:41:39;;;;;;;3.55;1.65;;;;;;;;;;2058899;28;20038;-59
2023/07/21 07:42:58;;;;;;;7.85;1.83;;;;;;;;;;2057894;28;20057;-60
2023/07/21 07:44:20;;;;;;;5.43;1.77;;;;;;;;;;2058390;28;20035;-59
2023/07/21 07:45:39;;;;;;;3.13;1.75;;;;;;;;;;2056827;28;20038;-60
2023/07/21 07:46:58;;;;;;;4.32;1.83;;;;;;;;;;2058054;28;20109;-60
2023/07/21 07:48:17;;;;;;;5.43;1.88;;;;;;;;;;2057225;28;20559;-62
2023/07/21 07:49:36;;;;;;;3.20;1.75;;;;;;;;;;2058130;28;20036;-60
2023/07/21 07:50:55;;;;;;;7.82;2.28;;;;;;;;;;2050210;28;20035;-65
2023/07/21 07:52:17;;;;;;;2.90;1.67;;;;;;;;;;2055976;28;20026;-60
2023/07/21 07:53:36;;;;;;;4.40;1.58;;;;;;;;;;2063325;28;20032;-60
2023/07/21 07:54:55;;;;;;;3.85;1.65;;;;;;;;;;2059076;28;20034;-60
2023/07/21 07:56:17;;;;;;;6.15;1.70;;;;;;;;;;2060315;28;20049;-60
2023/07/21 07:57:36;;;;;;;3.65;1.40;;;;;;;;;;2058543;28;20019;-60